Flight Track Log - Related Links

Times and Time Zones

All times are in EDT time to prevent confusion due to time zone crossing. See the GJS3710 flight status page for this flight to view local times or setup timezone preferences in your user account.

Time Position Orientation Groundspeed Altitude Reporting Facility
EDT Latitude Longitude Course Direction KTS MPH feet Rate Location/Type
Wed 08:54:59 PM 42.0000 -87.9333 86° East 155 178 1,400  Level Chicago TRACON
Wed 08:55:59 PM 42.0500 -87.9333 360° North 238 274 3,400 1,800 Climbing Chicago TRACON
Wed 08:56:59 PM 42.1000 -87.8667 45° Northeast 268 308 5,000 1,982 Climbing Chicago TRACON
Wed 08:57:48 PM 42.1444 -87.8172 40° Northeast 268 308 7,000 2,865 Climbing Chicago Center
Wed 08:58:00 PM 42.1842 -87.2975 66° East  Level FlightAware Approximate
Wed 08:58:50 PM 42.1694 -87.7164 71° East 290 334 10,300  Level Chicago Center
Wed 08:59:00 PM 42.2361 -87.1416 66° East  Level FlightAware Approximate
Wed 08:59:52 PM 42.1886 -87.6089 76° East 294 338 13,000  Level Chicago Center
Wed 09:00:00 PM 42.2677 -86.9794 86° East  Level FlightAware Approximate
Wed 09:00:54 PM 42.2081 -87.4925 77° East 313 360 14,900  Level Chicago Center
Wed 09:01:56 PM 42.2300 -87.3481 78° East 387 445 15,000 48 Climbing Chicago Center
Wed 09:02:58 PM 42.2350 -87.1525 88° East 433 498 15,000 629 Level Chicago Center
Wed 09:04:00 PM 42.2422 -86.9933 86° East 428 493 16,300 1,500 Climbing Chicago Center
Wed 09:05:02 PM 42.2475 -86.8300 87° East 436 502 18,100 1,935 Climbing Chicago Center
Wed 09:06:04 PM 42.2547 -86.6558 87° East 437 503 20,300 1,984 Climbing Chicago Center
Wed 09:07:06 PM 42.2603 -86.4883 87° East 447 514 22,200 1,645 Climbing Chicago Center
Wed 09:08:08 PM 42.2653 -86.3203 88° East 448 516 23,700 1,355 Climbing Chicago Center
Wed 09:09:10 PM 42.2711 -86.1475 87° East 457 526 25,000 1,210 Climbing Chicago Center
Wed 09:10:12 PM 42.2769 -85.9481 88° East 472 543 26,200 1,065 Climbing Chicago Center
Wed 09:11:14 PM 42.2819 -85.7647 88° East 487 560 27,200 976 Climbing Chicago Center
Wed 09:12:15 PM 42.2861 -85.5789 88° East 496 571 28,200 976 Climbing Chicago Center
Wed 09:13:17 PM 42.2917 -85.3894 88° East 506 582 29,200 919 Climbing Chicago Center
Wed 09:14:19 PM 42.2969 -85.1986 88° East 511 588 30,100 923 Climbing Chicago Center
Wed 09:15:14 PM 42.3019 -85.0111 88° East 513 590 31,000 835 Climbing Cleveland Center
Wed 09:16:14 PM 42.2969 -84.8142 92° East 518 596 31,700 750 Climbing Cleveland Center
Wed 09:17:14 PM 42.2858 -84.5972 94° East 518 596 32,500 750 Climbing Cleveland Center
Wed 09:18:14 PM 42.2969 -84.3956 86° East 523 602 33,200 700 Climbing Cleveland Center
Wed 09:19:14 PM 42.3219 -84.1978 80° East 528 608 33,900 700 Climbing Cleveland Center
Wed 09:20:14 PM 42.3511 -83.9969 79° East 541 623 34,600 800 Climbing Cleveland Center
Wed 09:21:14 PM 42.3800 -83.7933 79° East 541 623 35,500 900 Climbing Cleveland Center
Wed 09:22:14 PM 42.4061 -83.5950 80° East 541 623 36,400 750 Climbing Cleveland Center
Wed 09:23:14 PM 42.4133 -83.3956 87° East 541 623 37,000 300 Climbing Cleveland Center
Wed 09:24:14 PM 42.4219 -83.2103 86° East 538 619 37,000  Level Cleveland Center
Wed 09:25:14 PM 42.4264 -83.0081 88° East 538 619 37,000  Level Cleveland Center
Wed 09:26:14 PM 42.4347 -82.8000 87° East 543 625 37,000  Level Cleveland Center
Wed 09:27:14 PM 42.4406 -82.5919 88° East 543 625 37,000  Level Cleveland Center
Wed 09:29:00 PM 42.4468 -82.2967 88° East  Level FlightAware Approximate
Wed 09:30:14 PM 42.4561 -81.9706 88° East 548 631 37,000  Level Cleveland Center
Wed 09:31:14 PM 42.4625 -81.7653 88° East 548 631 37,000  Level Cleveland Center
Wed 09:32:14 PM 42.4664 -81.5569 88° East 555 639 37,000  Level Cleveland Center
Wed 09:33:14 PM 42.4700 -81.3544 89° East 545 627 37,000  Level Cleveland Center
Wed 09:34:14 PM 42.4733 -81.1461 89° East 545 627 37,000  Level Cleveland Center
Wed 09:35:14 PM 42.4783 -80.9181 88° East 550 633 37,000  Level Cleveland Center
Wed 09:36:14 PM 42.4808 -80.7128 89° East 550 633 37,000  Level Cleveland Center
Wed 09:37:14 PM 42.4831 -80.5072 89° East 545 627 37,000  Level Cleveland Center
Wed 09:38:14 PM 42.4869 -80.3017 88° East 550 633 37,000  Level Cleveland Center
Wed 09:39:14 PM 42.4883 -80.0989 89° East 544 626 37,000  Level Cleveland Center
Wed 09:40:14 PM 42.4936 -79.8933 88° East 544 626 37,000  Level Cleveland Center
Wed 09:41:14 PM 42.4922 -79.6906 90° East 544 626 37,000  Level Cleveland Center
Wed 09:42:14 PM 42.4925 -79.4878 90° East 539 620 37,000  Level Cleveland Center
Wed 09:43:14 PM 42.4925 -79.2822 90° East 539 620 37,000  Level Cleveland Center
Wed 09:44:14 PM 42.5067 -79.0792 85° East 539 620 37,000  Level Cleveland Center
Wed 09:45:14 PM 42.5206 -78.8733 85° East 539 620 37,000 -700 Level Cleveland Center
Wed 09:46:14 PM 42.5339 -78.6700 85° East 539 620 35,600 -1,450 Descending Cleveland Center
Wed 09:47:14 PM 42.5472 -78.4667 85° East 539 620 34,100 -1,500 Descending Cleveland Center
Wed 09:48:14 PM 42.5600 -78.2633 85° East 539 620 32,600 -1,500 Descending Cleveland Center
Wed 09:49:14 PM 42.5722 -78.0569 85° East 539 620 31,100 -1,450 Descending Cleveland Center
Wed 09:50:14 PM 42.5842 -77.8506 85° East 539 620 29,700 -612 Descending Cleveland Center
Wed 09:52:40 PM 42.6097 -77.3836 86° East 541 623 29,000 -204 Descending Boston Center
Wed 09:53:40 PM 42.6200 -77.1869 86° East 529 609 29,000  Level Boston Center
Wed 09:54:40 PM 42.6303 -76.9872 86° East 529 609 29,000  Level Boston Center
Wed 09:55:40 PM 42.6403 -76.7900 86° East 529 609 29,000  Level Boston Center
Wed 09:56:40 PM 42.6517 -76.5961 85° East 523 602 29,000  Level Boston Center
Wed 09:57:40 PM 42.6575 -76.4356 87° East 523 602 29,000 -150 Level Boston Center
Wed 09:58:40 PM 42.6703 -76.1819 86° East 523 602 28,700 -900 Descending Boston Center
Wed 09:59:40 PM 42.6764 -75.9931 87° East 513 590 27,200 -1,500 Descending Boston Center
Wed 10:00:40 PM 42.6944 -75.8106 82° East 502 578 25,700 -1,500 Descending Boston Center
Wed 10:01:40 PM 42.7308 -75.6314 74° East 490 564 24,200 -1,700 Descending Boston Center
Wed 10:02:40 PM 42.7692 -75.4497 74° East 485 558 22,300 -2,000 Descending Boston Center
Wed 10:03:40 PM 42.8050 -75.2731 74° East 485 558 20,200 -2,150 Descending Boston Center
Wed 10:04:40 PM 42.8403 -75.1019 74° East 479 551 18,000 -1,909 Descending Boston Center
Wed 10:05:52 PM 42.8753 -74.9392 74° East 460 529 16,000 -1,750 Descending Boston Center
Wed 10:07:04 PM 42.9128 -74.7422 75° East 443 510 13,800 -2,000 Descending Boston Center
Wed 10:08:04 PM 42.9539 -74.5478 74° East 443 510 11,600 -1,359 Descending Boston Center
Wed 10:09:12 PM 42.9903 -74.3789 74° East 416 479 10,900 -350 Descending Boston Center
Wed 10:10:04 PM 42.9967 -74.2456 86° East 410 472 10,900 -589 Level Boston Center
Wed 10:11:04 PM 42.9608 -74.1339 114° Southeast 328 377 9,800 -1,250 Descending Boston Center
Wed 10:12:04 PM 42.9225 -74.0450 120° Southeast 313 360 8,400 -1,579 Descending Boston Center
Wed 10:12:20 PM 42.9106 -74.0106 115° Southeast 276 318 7,800 -1,700 Descending Boston Center
Wed 10:13:04 PM 42.8844 -73.9475 119° Southeast 276 318 6,700 -1,967 Descending Boston Center
Wed 10:13:21 PM 42.8742 -73.9275 125° Southeast 245 282 5,800 -3,100 Descending Boston Center
Wed 10:14:04 PM 42.8519 -73.8703 118° Southeast 253 291 3,600 -3,070 Descending Boston Center

Login

Don't have an account? Register now (free) for customized features, flight alerts, and more!